Time;durP1;ratioP1;P1;durP2;ratioP2;P2;SDS_P1;SDS_P2;PMS_P1;PMS_P2;Temp;Humidity;BMP_temperature;BMP_pressure;BME280_temperature;BME280_humidity;BME280_pressure;Samples;Min_cycle;Max_cycle;Signal;HPM_P1;HPM_P2
2021/01/04 00:02:14;;;;;;;16.17;9.98;;;231.20;1996.80;;;;;;5033369;28;20034;-67
2021/01/04 00:05:11;;;;;;;16.17;10.95;;;231.20;1996.80;;;;;;5036365;28;20094;-65
2021/01/04 00:07:52;;;;;;;17.25;11.38;;;231.20;1996.80;;;;;;5033153;28;20060;-66
2021/01/04 00:10:37;;;;;;;17.42;10.95;;;231.20;1996.80;;;;;;5033103;28;20018;-65
2021/01/04 00:13:23;;;;;;;15.85;10.00;;;231.20;1996.80;;;;;;5015747;28;20540;-66
2021/01/04 00:16:03;;;;;;;16.98;10.85;;;231.30;1996.80;;;;;;5014916;28;20084;-67
2021/01/04 00:19:03;;;;;;;15.93;10.57;;;231.30;1996.80;;;;;;5034182;28;20463;-67
2021/01/04 00:21:41;;;;;;;14.23;8.82;;;231.30;1971.20;;;;;;5031943;28;20056;-71
2021/01/04 00:24:36;;;;;;;14.18;9.57;;;231.30;1971.20;;;;;;5029869;28;20021;-65
2021/01/04 00:27:09;;;;;;;16.83;9.95;;;231.30;1996.80;;;;;;5032029;28;20017;-68
2021/01/04 00:29:36;;;;;;;16.35;9.27;;;231.30;1971.20;;;;;;5033649;28;20478;-65
2021/01/04 00:32:14;;;;;;;12.88;8.38;;;231.30;1971.20;;;;;;5033666;28;20140;-65
2021/01/04 00:34:48;;;;;;;11.65;8.98;;;231.30;1971.20;;;;;;5030952;28;20021;-68
2021/01/04 00:37:25;;;;;;;13.53;9.47;;;231.30;1996.80;;;;;;5033865;28;20031;-65
2021/01/04 00:39:57;;;;;;;19.08;9.98;;;231.30;1971.20;;;;;;5014873;28;20271;-66
2021/01/04 00:42:30;;;;;;;15.75;9.82;;;231.30;1971.20;;;;;;5031339;28;20451;-66
2021/01/04 00:45:14;;;;;;;11.88;9.45;;;231.30;1971.20;;;;;;5033348;28;20021;-72
2021/01/04 00:47:43;;;;;;;15.55;9.40;;;231.30;1971.20;;;;;;5030965;28;20105;-66
2021/01/04 00:50:16;;;;;;;13.48;9.48;;;231.20;1996.80;;;;;;5033406;28;20014;-66
2021/01/04 00:52:48;;;;;;;14.38;9.40;;;231.20;1971.20;;;;;;5030862;28;20036;-66
2021/01/04 00:55:45;;;;;;;12.77;9.30;;;231.20;1971.20;;;;;;5015100;28;20037;-66
2021/01/04 00:58:45;;;;;;;13.35;9.77;;;231.20;1996.80;;;;;;5030689;28;20021;-66
2021/01/04 01:01:26;;;;;;;14.93;10.40;;;231.20;1971.20;;;;;;5030709;28;20018;-66
2021/01/04 01:04:08;;;;;;;14.55;9.65;;;231.20;1971.20;;;;;;5030750;28;20100;-66
2021/01/04 01:06:44;;;;;;;18.00;9.50;;;231.20;1971.20;;;;;;5030847;28;20061;-68
2021/01/04 01:09:13;;;;;;;12.60;8.10;;;231.20;1971.20;;;;;;5033076;28;20029;-64
2021/01/04 01:12:06;;;;;;;12.55;8.73;;;231.20;1971.20;;;;;;5033125;28;20080;-66
2021/01/04 01:14:59;;;;;;;12.00;7.75;;;231.20;1971.20;;;;;;5030682;28;20071;-67
2021/01/04 01:17:39;;;;;;;11.40;7.75;;;231.20;1971.20;;;;;;5032827;28;20040;-64
2021/01/04 01:20:09;;;;;;;11.88;7.95;;;231.20;1996.80;;;;;;5032905;28;20056;-67
2021/01/04 01:22:37;;;;;;;12.45;8.25;;;231.30;1971.20;;;;;;5032617;28;20029;-65
2021/01/04 01:25:34;;;;;;;12.45;8.32;;;231.20;1996.80;;;;;;5032763;28;20029;-66
2021/01/04 01:28:21;;;;;;;10.65;8.00;;;231.20;1996.80;;;;;;5030736;28;20352;-66
2021/01/04 01:31:24;;;;;;;13.68;8.70;;;231.20;1996.80;;;;;;5032374;28;20059;-66
2021/01/04 01:34:08;;;;;;;16.48;9.02;;;231.30;1996.80;;;;;;5033286;28;20091;-66
2021/01/04 01:36:54;;;;;;;13.90;9.18;;;231.30;1996.80;;;;;;5031338;28;20029;-66
2021/01/04 01:39:41;;;;;;;12.60;8.10;;;231.30;1996.80;;;;;;5035710;28;20033;-66
2021/01/04 01:42:22;;;;;;;9.95;7.25;;;231.30;1996.80;;;;;;5036631;28;20029;-67
2021/01/04 01:45:15;;;;;;;14.10;8.15;;;231.30;1996.80;;;;;;5037116;28;20056;-68
2021/01/04 01:48:01;;;;;;;12.88;8.35;;;231.30;1996.80;;;;;;5037423;28;20013;-68
2021/01/04 01:50:40;;;;;;;12.65;8.30;;;231.30;1996.80;;;;;;5037141;28;20097;-68
2021/01/04 01:53:30;;;;;;;12.73;8.60;;;231.30;1996.80;;;;;;5036804;28;20080;-67
2021/01/04 01:56:11;;;;;;;12.38;8.10;;;231.30;1971.20;;;;;;5036986;28;20414;-70
2021/01/04 01:59:04;;;;;;;13.65;7.72;;;231.30;1971.20;;;;;;5037426;28;20032;-69
2021/01/04 02:01:48;;;;;;;12.10;8.95;;;231.30;1996.80;;;;;;5037310;28;20021;-66
2021/01/04 02:04:42;;;;;;;11.32;8.27;;;231.30;1971.20;;;;;;5037235;28;20025;-67
2021/01/04 02:07:13;;;;;;;11.90;7.80;;;231.30;1971.20;;;;;;5037034;28;20025;-67
2021/01/04 02:09:53;;;;;;;11.52;8.52;;;231.30;1971.20;;;;;;5036669;28;20475;-68
2021/01/04 02:12:49;;;;;;;12.63;7.63;;;231.30;1996.80;;;;;;5036857;28;20038;-66
2021/01/04 02:15:19;;;;;;;10.73;7.85;;;231.30;1971.20;;;;;;5036603;28;20129;-66
2021/01/04 02:17:58;;;;;;;12.13;7.68;;;231.30;1971.20;;;;;;5036811;28;20025;-70
2021/01/04 02:20:32;;;;;;;15.10;8.88;;;231.30;1971.20;;;;;;5036146;28;20057;-65
2021/01/04 02:23:25;;;;;;;11.00;7.65;;;231.30;1971.20;;;;;;5036617;28;20467;-67
2021/01/04 02:25:55;;;;;;;11.02;7.70;;;231.30;1971.20;;;;;;5036558;28;20061;-68
2021/01/04 02:28:26;;;;;;;12.07;7.70;;;231.30;1971.20;;;;;;5036517;28;20037;-67
2021/01/04 02:30:51;;;;;;;11.77;7.35;;;256.00;1971.20;;;;;;5036454;28;20409;-67
2021/01/04 02:33:18;;;;;;;11.50;7.18;;;231.30;1971.20;;;;;;5036805;28;20043;-67
2021/01/04 02:35:47;;;;;;;12.07;7.68;;;231.30;1971.20;;;;;;5036209;28;20064;-67
2021/01/04 02:38:26;;;;;;;11.32;7.40;;;256.00;1971.20;;;;;;5036366;28;20388;-66
2021/01/04 02:40:52;;;;;;;12.60;7.97;;;256.00;1971.20;;;;;;5036490;28;20069;-69
2021/01/04 02:43:20;;;;;;;13.13;8.07;;;256.00;1971.20;;;;;;5036275;28;20796;-69
2021/01/04 02:45:46;;;;;;;10.35;7.82;;;256.00;1971.20;;;;;;5036049;28;20033;-68
2021/01/04 02:48:55;;;;;;;16.65;8.55;;;256.00;1971.20;;;;;;5035982;28;20029;-68
2021/01/04 02:51:25;;;;;;;11.15;7.78;;;256.00;1971.20;;;;;;5036089;28;20022;-68
2021/01/04 02:54:14;;;;;;;13.30;7.35;;;231.30;1971.20;;;;;;5035941;28;20039;-68
2021/01/04 02:57:02;;;;;;;10.38;7.90;;;231.30;1971.20;;;;;;5035985;28;20021;-68
2021/01/04 02:59:48;;;;;;;12.07;8.35;;;231.30;1971.20;;;;;;4955307;29;20133;-68
2021/01/04 03:02:38;;;;;;;12.57;8.13;;;231.30;1971.20;;;;;;4955829;29;20039;-68
2021/01/04 03:05:09;;;;;;;11.98;7.47;;;231.30;1971.20;;;;;;4955646;29;20481;-68
2021/01/04 03:07:35;;;;;;;14.73;8.77;;;231.30;1971.20;;;;;;4955625;29;20054;-68
2021/01/04 03:10:17;;;;;;;15.02;8.85;;;231.30;1996.80;;;;;;4955552;28;20500;-68
2021/01/04 03:12:50;;;;;;;14.25;8.13;;;231.30;1971.20;;;;;;4955529;29;20050;-68
2021/01/04 03:15:22;;;;;;;17.23;9.52;;;231.30;1971.20;;;;;;4955527;29;20037;-69
2021/01/04 03:18:17;;;;;;;14.60;8.63;;;231.30;1971.20;;;;;;4955483;29;20035;-69
2021/01/04 03:20:44;;;;;;;10.60;7.53;;;231.30;1996.80;;;;;;4955080;28;20059;-68
2021/01/04 03:23:10;;;;;;;11.18;7.90;;;231.30;1971.20;;;;;;4955418;29;20039;-67
2021/01/04 03:25:52;;;;;;;12.73;8.43;;;231.30;1971.20;;;;;;4955577;29;20035;-67
2021/01/04 03:28:29;;;;;;;12.95;8.00;;;231.30;1971.20;;;;;;4955528;29;20051;-68
2021/01/04 03:30:56;;;;;;;11.13;8.10;;;231.20;1971.20;;;;;;4955255;29;20535;-68
2021/01/04 03:33:22;;;;;;;12.15;8.10;;;231.20;1996.80;;;;;;4955117;29;20465;-67
2021/01/04 03:35:49;;;;;;;12.55;7.82;;;231.20;1971.20;;;;;;4969674;28;20095;-67
2021/01/04 03:38:15;;;;;;;14.45;8.10;;;231.20;1971.20;;;;;;5035089;28;20083;-68
2021/01/04 03:40:41;;;;;;;11.55;8.45;;;231.20;1971.20;;;;;;5035214;28;20033;-67
2021/01/04 03:43:07;;;;;;;13.60;8.57;;;231.20;1971.20;;;;;;5035110;28;20033;-69
2021/01/04 03:45:33;;;;;;;12.30;8.52;;;231.20;1971.20;;;;;;5035334;28;20025;-68
2021/01/04 03:47:58;;;;;;;12.50;8.13;;;231.20;1971.20;;;;;;5035198;28;20033;-68
2021/01/04 03:50:24;;;;;;;13.93;7.90;;;231.20;1971.20;;;;;;5034909;28;20376;-68
2021/01/04 03:52:50;;;;;;;10.07;7.45;;;231.20;1971.20;;;;;;5035343;28;20041;-68
2021/01/04 03:55:17;;;;;;;13.50;8.27;;;231.20;1971.20;;;;;;5034975;28;20024;-67
2021/01/04 03:57:43;;;;;;;14.73;8.18;;;231.20;1971.20;;;;;;5034944;28;20076;-67
2021/01/04 04:00:11;;;;;;;10.70;7.63;;;231.20;1971.20;;;;;;5033698;28;20165;-66
2021/01/04 04:02:37;;;;;;;14.13;8.45;;;231.20;1971.20;;;;;;5034898;28;20035;-68
2021/01/04 04:05:04;;;;;;;8.95;6.95;;;231.20;1971.20;;;;;;5034656;28;20399;-68
2021/01/04 04:07:30;;;;;;;11.02;7.70;;;231.20;1971.20;;;;;;5034495;28;20034;-68
2021/01/04 04:09:56;;;;;;;11.40;7.57;;;231.20;1971.20;;;;;;5034753;28;20104;-68
2021/01/04 04:12:21;;;;;;;10.73;7.65;;;231.20;1971.20;;;;;;5034641;28;20118;-68
2021/01/04 04:14:49;;;;;;;10.38;7.60;;;231.20;1971.20;;;;;;5034518;28;20026;-68
2021/01/04 04:17:19;;;;;;;11.13;7.72;;;231.20;1971.20;;;;;;5034458;28;20091;-74
2021/01/04 04:19:46;;;;;;;9.32;7.18;;;231.20;1971.20;;;;;;5034217;28;20053;-68
2021/01/04 04:22:13;;;;;;;11.02;7.70;;;231.20;1971.20;;;;;;5034212;28;20021;-68
2021/01/04 04:24:40;;;;;;;11.13;7.45;;;231.20;1971.20;;;;;;5034218;28;20048;-68
2021/01/04 04:27:08;;;;;;;10.65;7.22;;;231.20;1971.20;;;;;;5034287;28;20060;-68
2021/01/04 04:29:34;;;;;;;10.18;7.43;;;231.20;1971.20;;;;;;5034218;28;20080;-68
2021/01/04 04:32:00;;;;;;;13.20;7.47;;;231.20;1971.20;;;;;;5034029;28;20121;-68
2021/01/04 04:34:25;;;;;;;8.75;6.75;;;231.20;1971.20;;;;;;5034275;28;20057;-69
2021/01/04 04:36:51;;;;;;;10.38;7.78;;;231.20;1971.20;;;;;;5034082;28;20132;-68
2021/01/04 04:39:17;;;;;;;10.75;7.18;;;231.20;1971.20;;;;;;5034304;28;20025;-68
2021/01/04 04:41:46;;;;;;;11.30;6.75;;;231.20;1971.20;;;;;;5034016;28;20029;-68
2021/01/04 04:44:33;;;;;;;10.75;7.65;;;231.20;1971.20;;;;;;5034120;28;20048;-67
2021/01/04 04:47:26;;;;;;;11.52;7.65;;;231.10;1971.20;;;;;;5034087;28;20083;-68
2021/01/04 04:49:57;;;;;;;11.55;7.25;;;231.20;1971.20;;;;;;5034176;28;20359;-69
2021/01/04 04:52:31;;;;;;;11.93;8.02;;;231.10;1971.20;;;;;;5033908;28;20033;-68
2021/01/04 04:55:09;;;;;;;11.82;7.00;;;231.20;1971.20;;;;;;5033986;28;20032;-68
2021/01/04 04:57:39;;;;;;;12.02;7.53;;;231.10;1971.20;;;;;;5033957;28;20017;-68
2021/01/04 05:00:08;;;;;;;13.02;8.40;;;231.20;1971.20;;;;;;5033909;28;20083;-68
2021/01/04 05:02:55;;;;;;;15.23;10.13;;;231.20;1971.20;;;;;;5033687;28;20033;-68
2021/01/04 05:05:36;;;;;;;16.52;12.10;;;231.10;1971.20;;;;;;5033655;28;20026;-69
2021/01/04 05:08:15;;;;;;;13.82;10.00;;;231.10;1971.20;;;;;;5033625;28;20018;-70
2021/01/04 05:10:44;;;;;;;12.48;9.13;;;231.10;1971.20;;;;;;5033739;28;20033;-68
2021/01/04 05:13:24;;;;;;;12.82;9.70;;;231.10;1971.20;;;;;;5033780;28;20037;-68
2021/01/04 05:16:01;;;;;;;15.77;10.43;;;231.10;1971.20;;;;;;5033813;28;20022;-68
2021/01/04 05:18:41;;;;;;;12.15;8.70;;;231.10;1971.20;;;;;;5033720;28;20475;-68
2021/01/04 05:21:32;;;;;;;14.55;8.63;;;231.10;1971.20;;;;;;5033337;28;20053;-70
2021/01/04 05:23:58;;;;;;;11.45;8.38;;;231.10;1971.20;;;;;;5033705;28;20077;-67
2021/01/04 05:26:33;;;;;;;10.95;7.85;;;231.10;1971.20;;;;;;5033767;28;20049;-67
2021/01/04 05:29:23;;;;;;;8.45;7.07;;;231.00;1971.20;;;;;;5033732;28;20022;-68
2021/01/04 05:32:10;;;;;;;12.57;7.95;;;231.00;1971.20;;;;;;5033822;28;20421;-68
2021/01/04 05:34:51;;;;;;;13.27;8.55;;;231.00;1971.20;;;;;;5015884;28;20026;-67
2021/01/04 05:37:35;;;;;;;10.48;7.97;;;231.00;1971.20;;;;;;5032765;28;20485;-68
2021/01/04 05:40:08;;;;;;;11.80;7.90;;;231.00;1971.20;;;;;;5033551;28;20025;-68
2021/01/04 05:42:36;;;;;;;13.82;7.80;;;231.00;1971.20;;;;;;5033506;28;20538;-68
2021/01/04 05:45:31;;;;;;;11.55;7.25;;;231.00;1971.20;;;;;;5033456;28;20109;-67
2021/01/04 05:48:35;;;;;;;11.73;8.15;;;231.00;1971.20;;;;;;5015608;28;20025;-66
2021/01/04 05:51:16;;;;;;;11.40;7.47;;;231.00;1971.20;;;;;;4953133;28;20118;-68
2021/01/04 05:53:44;;;;;;;10.75;7.38;;;231.00;1971.20;;;;;;4953181;29;20055;-68
2021/01/04 05:56:17;;;;;;;10.50;7.95;;;230.90;1971.20;;;;;;4953261;29;20414;-68
2021/01/04 05:58:43;;;;;;;10.77;7.80;;;231.00;1971.20;;;;;;4953284;29;20470;-68
2021/01/04 06:01:13;;;;;;;10.20;7.63;;;230.90;1971.20;;;;;;4936828;29;20035;-68
2021/01/04 06:03:39;;;;;;;10.48;7.28;;;231.00;1971.20;;;;;;4953111;29;20030;-67
2021/01/04 06:06:19;;;;;;;10.63;7.40;;;230.90;1971.20;;;;;;4953089;28;20027;-67
2021/01/04 06:08:45;;;;;;;12.80;8.00;;;231.00;1971.20;;;;;;4953194;29;20035;-67
2021/01/04 06:11:13;;;;;;;11.07;7.97;;;231.00;1971.20;;;;;;4953201;29;20381;-71
2021/01/04 06:13:43;;;;;;;11.70;7.25;;;231.00;1971.20;;;;;;4953023;29;20178;-70
2021/01/04 06:16:25;;;;;;;10.88;8.07;;;231.00;1971.20;;;;;;4953026;29;20031;-74
2021/01/04 06:19:09;;;;;;;10.95;8.10;;;231.00;1971.20;;;;;;4953120;29;20035;-70
2021/01/04 06:21:51;;;;;;;9.38;7.25;;;231.00;1971.20;;;;;;4952730;28;20071;-69
2021/01/04 06:24:23;;;;;;;10.88;7.63;;;231.00;1971.20;;;;;;4956187;29;20031;-67
2021/01/04 06:26:51;;;;;;;10.45;7.40;;;231.00;1971.20;;;;;;4977196;28;20033;-68
2021/01/04 06:29:34;;;;;;;10.13;7.00;;;231.00;1996.80;;;;;;5036485;28;20022;-68
2021/01/04 06:32:03;;;;;;;9.57;7.40;;;231.00;1996.80;;;;;;5036405;28;20123;-68
2021/01/04 06:34:33;;;;;;;12.15;8.05;;;231.00;1996.80;;;;;;5036304;28;20037;-72
2021/01/04 06:37:15;;;;;;;14.98;9.45;;;231.00;1996.80;;;;;;5036256;28;20021;-69
2021/01/04 06:39:41;;;;;;;18.10;9.90;;;231.00;1996.80;;;;;;5036537;28;20033;-69
2021/01/04 06:42:12;;;;;;;18.83;10.10;;;231.00;1996.80;;;;;;5036105;28;20108;-68
2021/01/04 06:44:39;;;;;;;12.00;8.30;;;231.00;1996.80;;;;;;5036160;28;20029;-68
2021/01/04 06:47:34;;;;;;;16.35;9.23;;;231.10;1996.80;;;;;;5036132;28;20037;-68
2021/01/04 06:50:10;;;;;;;11.15;8.10;;;231.10;1996.80;;;;;;4955780;29;20134;-67
2021/01/04 06:52:41;;;;;;;11.88;8.93;;;231.10;1996.80;;;;;;4955815;29;20047;-67
2021/01/04 06:55:19;;;;;;;13.57;8.85;;;231.10;1996.80;;;;;;4955103;29;20042;-68
2021/01/04 06:58:10;;;;;;;16.55;8.95;;;231.10;1996.80;;;;;;4955714;29;20469;-70
2021/01/04 07:00:45;;;;;;;14.63;9.45;;;231.10;1996.80;;;;;;4898607;29;20062;-74
2021/01/04 07:03:29;;;;;;;;;;;231.20;1996.80;;;;;;4899305;29;20062;-71
2021/01/04 07:06:03;;;;;;;12.65;8.55;;;231.20;1996.80;;;;;;4898724;29;20405;-71
2021/01/04 07:08:50;;;;;;;12.35;7.82;;;231.20;1996.80;;;;;;4898485;29;20123;-73
2021/01/04 07:11:22;;;;;;;9.60;7.47;;;231.20;1996.80;;;;;;4898534;28;20160;-72
2021/01/04 07:14:09;;;;;;;12.15;9.45;;;231.20;1996.80;;;;;;4898516;29;20044;-72
2021/01/04 07:16:57;;;;;;;13.50;9.05;;;231.30;1996.80;;;;;;4898615;29;20108;-73
2021/01/04 07:19:57;;;;;;;13.77;9.07;;;231.30;1996.80;;;;;;4897859;29;20088;-74
2021/01/04 07:22:28;;;;;;;11.18;8.15;;;231.30;1996.80;;;;;;4898235;29;20450;-74
2021/01/04 07:25:47;;;;;;;16.42;10.15;;;231.30;1996.80;;;;;;4898218;29;20040;-73
2021/01/04 07:28:46;;;;;;;15.75;9.55;;;256.00;1996.80;;;;;;4896614;29;20132;-76
2021/01/04 07:31:31;;;;;;;11.68;8.65;;;256.00;1996.80;;;;;;4898207;29;20088;-73
2021/01/04 07:34:19;;;;;;;12.98;9.00;;;256.00;1996.80;;;;;;4897333;29;20040;-73
2021/01/04 07:37:04;;;;;;;21.42;10.68;;;256.10;1996.80;;;;;;4910762;29;20473;-77
2021/01/04 07:39:35;;;;;;;25.13;13.75;;;256.10;2022.40;;;;;;4955086;29;20031;-72
2021/01/04 07:42:22;;;;;;;39.40;18.58;;;256.30;2022.40;;;;;;4954986;29;20031;-73
2021/01/04 07:45:06;;;;;;;25.38;15.70;;;256.30;1996.80;;;;;;4955082;29;20201;-71
2021/01/04 07:48:03;;;;;;;31.20;16.97;;;256.40;1971.20;;;;;;4955227;29;20078;-72
2021/01/04 07:50:47;;;;;;;26.90;15.65;;;256.40;1945.60;;;;;;4955156;29;20682;-74
2021/01/04 07:53:50;;;;;;;31.33;17.30;;;256.40;1971.20;;;;;;4954841;29;20046;-71
2021/01/04 07:56:39;;;;;;;24.02;14.95;;;256.40;1945.60;;;;;;4955126;29;20163;-71
2021/01/04 07:59:26;;;;;;;19.00;12.57;;;256.50;1971.20;;;;;;4954837;29;20055;-71
2021/01/04 08:02:10;;;;;;;21.15;13.07;;;256.50;1945.60;;;;;;4976531;28;20038;-74
2021/01/04 08:05:06;;;;;;;24.85;13.25;;;256.50;1971.20;;;;;;5035145;28;20018;-75
2021/01/04 08:08:04;;;;;;;23.75;12.20;;;256.70;2073.60;;;;;;5034866;28;20099;-71
2021/01/04 08:11:01;;;;;;;25.38;13.40;;;256.70;1971.20;;;;;;4954534;29;20036;-72
2021/01/04 08:13:36;;;;;;;19.00;13.07;;;256.80;1945.60;;;;;;4954219;29;20477;-71
2021/01/04 08:16:20;;;;;;;14.52;11.00;;;256.80;1945.60;;;;;;4954410;29;20541;-70
2021/01/04 08:18:50;;;;;;;16.15;10.68;;;256.80;1945.60;;;;;;4954422;29;20039;-70
2021/01/04 08:21:37;;;;;;;12.00;9.32;;;256.90;1945.60;;;;;;4953943;28;20085;-70
2021/01/04 08:24:05;;;;;;;16.17;10.32;;;256.80;1945.60;;;;;;4954164;29;20039;-71
2021/01/04 08:26:55;;;;;;;18.13;11.07;;;256.80;1945.60;;;;;;4954190;29;20196;-71
2021/01/04 08:30:11;;;;;;;15.73;11.40;;;256.90;1945.60;;;;;;4954360;29;20038;-71
2021/01/04 08:33:00;;;;;;;18.38;11.43;;;256.90;1945.60;;;;;;4897119;29;20040;-71
2021/01/04 08:35:29;;;;;;;27.58;11.73;;;256.90;1971.20;;;;;;4896760;29;20037;-73
2021/01/04 08:37:58;;;;;;;26.63;11.05;;;281.90;2278.40;;;;;;4897041;29;20033;-73
2021/01/04 08:40:35;;;;;;;27.98;11.88;;;282.30;2278.40;;;;;;4897186;29;20659;-74
2021/01/04 08:43:09;;;;;;;19.50;9.35;;;307.30;2227.20;;;;;;4897302;29;20032;-72
2021/01/04 08:45:46;;;;;;;38.70;11.27;;;307.70;2176.00;;;;;;4896670;29;20055;-74
2021/01/04 08:48:19;;;;;;;40.47;11.07;;;307.90;2124.80;;;;;;4960528;28;20531;-71
2021/01/04 09:03:20;;;;;;;63.03;14.77;;;332.80;1996.80;;;;;;5111659;27;20441;-72
2021/01/04 09:05:46;;;;;;;80.68;16.42;;;358.80;1817.60;;;;;;5110888;28;20028;-72
2021/01/04 09:08:15;;;;;;;52.80;14.43;;;358.70;1868.80;;;;;;5110922;28;20027;-72
2021/01/04 09:10:48;;;;;;;58.05;13.55;;;358.70;1894.40;;;;;;5111167;28;20540;-73
2021/01/04 09:13:22;;;;;;;50.15;11.35;;;358.70;1868.80;;;;;;5111649;28;20045;-72
2021/01/04 09:15:54;;;;;;;32.65;10.48;;;358.70;1894.40;;;;;;5111275;28;20073;-72
2021/01/04 09:18:31;;;;;;;13.80;7.18;;;358.80;1868.80;;;;;;5111022;28;20028;-72
2021/01/04 09:21:07;;;;;;;14.88;7.88;;;358.60;1740.80;;;;;;5110918;28;20115;-70
2021/01/04 09:23:44;;;;;;;10.73;8.65;;;333.70;1792.00;;;;;;5110942;28;20081;-70
2021/01/04 09:26:25;;;;;;;13.15;10.23;;;333.50;1766.40;;;;;;5110945;28;20036;-70
2021/01/04 09:29:16;;;;;;;15.27;10.32;;;333.30;1792.00;;;;;;5110882;28;20047;-72
2021/01/04 09:31:49;;;;;;;15.65;9.50;;;333.20;1843.20;;;;;;5110823;28;20028;-73
2021/01/04 09:34:17;;;;;;;22.50;9.50;;;333.10;1817.60;;;;;;5111033;28;20020;-74
2021/01/04 09:36:43;;;;;;;47.85;14.63;;;333.10;1843.20;;;;;;5110741;28;20024;-72
2021/01/04 09:39:13;;;;;;;31.80;13.18;;;333.10;1843.20;;;;;;5110898;28;20020;-73
2021/01/04 09:41:39;;;;;;;14.75;10.20;;;333.00;1843.20;;;;;;5110818;28;20028;-73
2021/01/04 09:44:14;;;;;;;53.40;14.18;;;333.00;1843.20;;;;;;5092499;28;20457;-73
2021/01/04 09:46:51;;;;;;;23.05;10.45;;;333.00;1868.80;;;;;;5110618;28;20552;-73
2021/01/04 09:49:20;;;;;;;62.45;18.48;;;333.00;1843.20;;;;;;5092393;28;20028;-71
2021/01/04 09:52:00;;;;;;;45.58;16.13;;;333.30;1971.20;;;;;;5110512;28;20042;-75
2021/01/04 09:54:31;;;;;;;33.03;12.82;;;333.40;1894.40;;;;;;5110663;28;20024;-72
2021/01/04 09:57:01;;;;;;;25.65;12.82;;;333.30;1843.20;;;;;;5092369;28;20092;-74
2021/01/04 09:59:28;;;;;;;21.83;12.75;;;333.30;1817.60;;;;;;5110665;28;20031;-73
2021/01/04 10:01:59;;;;;;;25.58;14.13;;;333.20;1817.60;;;;;;5110179;28;20052;-73
2021/01/04 10:04:38;;;;;;;25.98;15.38;;;333.10;1817.60;;;;;;5091303;28;20016;-71
2021/01/04 10:07:08;;;;;;;38.38;22.55;;;333.10;1817.60;;;;;;5096501;28;20051;-73
2021/01/04 10:09:40;;;;;;;32.55;17.90;;;333.00;1843.20;;;;;;5096701;28;20114;-73
2021/01/04 10:12:09;;;;;;;35.65;16.42;;;333.00;1817.60;;;;;;5096560;28;20042;-73
2021/01/04 10:14:35;;;;;;;32.47;18.20;;;333.00;1817.60;;;;;;5096535;28;20024;-73
2021/01/04 10:17:02;;;;;;;38.13;21.33;;;333.00;1843.20;;;;;;5096530;28;20100;-74
2021/01/04 10:19:37;;;;;;;28.58;16.27;;;332.90;1843.20;;;;;;5096602;28;20016;-73
2021/01/04 10:22:10;;;;;;;;;;;332.90;1843.20;;;;;;5097332;28;20109;-73
2021/01/04 10:24:51;;;;;;;104.35;23.58;;;332.90;1843.20;;;;;;5095918;28;19911;-78
2021/01/04 10:27:19;;;;;;;352.92;198.50;;;332.80;1843.20;;;;;;5096625;28;20097;-78
2021/01/04 10:29:52;;;;;;;286.55;188.90;;;332.80;1868.80;;;;;;5096425;28;20047;-69
2021/01/04 10:32:39;;;;;;;134.88;91.20;;;332.80;1868.80;;;;;;5079382;28;20038;-79
2021/01/04 10:35:18;;;;;;;46.80;31.15;;;332.80;1868.80;;;;;;5096277;28;20074;-79
2021/01/04 10:37:53;;;;;;;324.27;132.13;;;308.10;1843.20;;;;;;5077616;28;20042;-78
2021/01/04 10:40:22;;;;;;;331.02;140.48;;;308.10;1843.20;;;;;;5096150;28;20030;-79
2021/01/04 10:42:59;;;;;;;196.15;90.07;;;308.00;1843.20;;;;;;5095837;28;20036;-78
2021/01/04 10:45:39;;;;;;;118.57;62.22;;;307.90;1843.20;;;;;;5096395;28;20071;-78
2021/01/04 10:48:25;;;;;;;101.65;49.40;;;308.00;1843.20;;;;;;5096171;28;20078;-76
2021/01/04 10:50:54;;;;;;;99.68;54.05;;;308.00;1868.80;;;;;;5095992;28;20069;-76
2021/01/04 10:53:41;;;;;;;71.88;44.22;;;307.90;1868.80;;;;;;5077694;28;20142;-76
2021/01/04 10:56:16;;;;;;;60.05;35.50;;;307.90;1868.80;;;;;;5077732;28;20031;-77
2021/01/04 10:59:01;;;;;;;;;;;307.90;1868.80;;;;;;5096278;28;20034;-77
2021/01/04 11:01:32;;;;;;;;;;;307.80;1894.40;;;;;;5077091;28;20365;-76
2021/01/04 11:04:13;;;;;;;49.22;28.27;;;307.70;1894.40;;;;;;5095708;28;20360;-77
2021/01/04 11:06:41;;;;;;;44.03;26.83;;;307.70;1894.40;;;;;;5076300;28;20046;-77
2021/01/04 11:09:25;;;;;;;52.70;29.45;;;307.60;1894.40;;;;;;5095688;28;20350;-79
2021/01/04 11:12:10;;;;;;;65.53;35.40;;;307.60;1894.40;;;;;;5077229;28;20032;-76
2021/01/04 11:14:38;;;;;;;64.72;35.25;;;307.60;1894.40;;;;;;5076310;28;20020;-77
2021/01/04 11:17:18;;;;;;;59.47;32.88;;;307.60;1894.40;;;;;;5095454;28;20426;-77
2021/01/04 11:19:44;;;;;;;65.45;35.78;;;307.60;1894.40;;;;;;5095478;28;20035;-77
2021/01/04 11:22:14;;;;;;;50.88;30.25;;;307.60;1894.40;;;;;;5095326;28;20114;-78
2021/01/04 11:24:43;;;;;;;42.55;26.30;;;307.60;1894.40;;;;;;5095580;28;20089;-79
2021/01/04 11:27:10;;;;;;;49.15;27.92;;;307.70;1920.00;;;;;;5095637;28;20040;-78
2021/01/04 11:29:39;;;;;;;46.15;26.83;;;307.70;1894.40;;;;;;5077193;28;20039;-79
2021/01/04 11:32:05;;;;;;;44.08;25.35;;;307.70;1894.40;;;;;;5095485;28;20105;-79
2021/01/04 11:34:31;;;;;;;39.58;23.98;;;307.80;1868.80;;;;;;5095214;28;20024;-79
2021/01/04 11:36:57;;;;;;;38.70;22.55;;;307.80;1868.80;;;;;;5111247;28;20024;-79
2021/01/04 11:39:23;;;;;;;38.70;21.90;;;307.90;1868.80;;;;;;5095242;28;20454;-76
2021/01/04 11:41:49;;;;;;;32.45;19.70;;;307.90;1894.40;;;;;;5095145;28;20381;-76
2021/01/04 11:44:14;;;;;;;32.67;18.80;;;307.90;1868.80;;;;;;5094855;28;20028;-79
2021/01/04 11:46:41;;;;;;;31.05;16.70;;;307.90;1894.40;;;;;;5094920;28;20061;-79
2021/01/04 11:49:06;;;;;;;29.10;16.63;;;307.90;1868.80;;;;;;5095270;28;20169;-79
2021/01/04 11:51:32;;;;;;;32.65;18.67;;;307.90;1868.80;;;;;;5095182;28;20115;-79
2021/01/04 11:53:58;;;;;;;39.33;21.50;;;307.90;1843.20;;;;;;5094902;28;20105;-80
2021/01/04 11:56:28;;;;;;;32.72;20.40;;;307.90;1868.80;;;;;;5110990;28;20381;-80
2021/01/04 11:58:53;;;;;;;30.63;17.80;;;307.90;1868.80;;;;;;5095087;28;20035;-79
2021/01/04 12:01:19;;;;;;;30.33;18.15;;;307.90;1868.80;;;;;;5076354;28;20036;-79
2021/01/04 12:03:45;;;;;;;24.25;15.70;;;307.90;1894.40;;;;;;5076763;28;20031;-79
2021/01/04 12:06:11;;;;;;;21.67;14.32;;;307.90;1894.40;;;;;;5094653;28;20089;-76
2021/01/04 12:08:38;;;;;;;23.20;14.18;;;307.90;1894.40;;;;;;5075591;28;20081;-78
2021/01/04 12:11:05;;;;;;;35.38;19.83;;;307.90;1894.40;;;;;;5094362;28;20028;-79
2021/01/04 12:13:31;;;;;;;24.27;15.55;;;308.00;1945.60;;;;;;5076721;28;20032;-79
2021/01/04 12:15:56;;;;;;;27.65;17.63;;;307.90;1920.00;;;;;;5094072;28;20024;-79
2021/01/04 12:18:23;;;;;;;26.80;18.45;;;307.90;1920.00;;;;;;5094479;28;20024;-79
2021/01/04 12:20:49;;;;;;;49.75;31.25;;;307.90;1920.00;;;;;;5076215;28;20424;-78
2021/01/04 12:23:16;;;;;;;75.65;42.45;;;307.90;1920.00;;;;;;5094020;28;20031;-78
2021/01/04 12:25:42;;;;;;;87.65;49.92;;;307.80;1920.00;;;;;;5094010;28;20024;-79
2021/01/04 12:28:08;;;;;;;55.20;32.80;;;307.80;1945.60;;;;;;5093617;28;20035;-78
2021/01/04 12:30:34;;;;;;;40.22;25.13;;;307.80;1945.60;;;;;;5076054;28;20047;-76
2021/01/04 12:33:00;;;;;;;33.30;21.67;;;307.80;1971.20;;;;;;5094274;28;20035;-78
2021/01/04 12:35:27;;;;;;;42.65;26.45;;;307.80;1971.20;;;;;;5076271;28;20071;-80
2021/01/04 12:37:53;;;;;;;42.65;30.83;;;307.80;1971.20;;;;;;5075887;28;20024;-77
2021/01/04 12:40:21;;;;;;;46.85;32.92;;;307.80;1971.20;;;;;;5093965;28;20103;-77
2021/01/04 12:42:47;;;;;;;63.60;40.75;;;307.80;1996.80;;;;;;5094229;28;20035;-78
2021/01/04 12:45:15;;;;;;;61.92;38.78;;;307.70;1996.80;;;;;;5092992;28;20370;-78
2021/01/04 12:47:41;;;;;;;49.72;30.95;;;307.70;1996.80;;;;;;5075994;28;20035;-77
2021/01/04 12:50:08;;;;;;;53.65;32.70;;;307.80;1971.20;;;;;;5094014;28;20365;-77
2021/01/04 12:52:33;;;;;;;45.80;29.73;;;307.80;1971.20;;;;;;5093697;28;20037;-76
2021/01/04 12:54:59;;;;;;;48.95;27.33;;;307.70;1971.20;;;;;;5094264;28;20024;-80
2021/01/04 12:57:25;;;;;;;33.88;19.55;;;307.80;1996.80;;;;;;5093884;28;20427;-80
2021/01/04 12:59:51;;;;;;;24.25;14.77;;;307.80;1971.20;;;;;;5094257;28;20028;-80
2021/01/04 13:02:18;;;;;;;30.05;14.77;;;307.90;1971.20;;;;;;5109534;28;20071;-80